Time;durP1;ratioP1;P1;durP2;ratioP2;P2;SDS_P1;SDS_P2;PMS_P1;PMS_P2;Temp;Humidity;BMP_temperature;BMP_pressure;BME280_temperature;BME280_humidity;BME280_pressure;Samples;Min_cycle;Max_cycle;Signal;HPM_P1;HPM_P2
2022/05/11 00:00:25;;;;;;;14.18;6.00;;;5.00;1.00;;;5.81;78.16;99436.97;5015171;28;130950;-77
2022/05/11 00:02:53;;;;;;;14.60;6.80;;;5.00;1.00;;;5.78;78.70;99434.84;5019080;28;125889;-77
2022/05/11 00:05:24;;;;;;;16.80;7.03;;;4.90;1.00;;;5.70;79.50;99431.69;5018520;28;127089;-78
2022/05/11 00:07:53;;;;;;;17.25;6.30;;;4.90;1.00;;;5.63;80.17;99427.69;5021635;28;130104;-78
2022/05/11 00:10:22;;;;;;;17.23;6.28;;;4.90;1.00;;;5.51;80.69;99428.81;5016110;28;129510;-79
2022/05/11 00:12:51;;;;;;;14.55;6.60;;;4.80;1.00;;;5.44;81.13;99435.59;5016051;28;125805;-76
2022/05/11 00:15:22;;;;;;;14.68;6.70;;;4.70;1.00;;;5.39;81.47;99431.06;5021708;28;124684;-81
2022/05/11 00:17:51;;;;;;;14.55;6.80;;;4.70;1.00;;;5.36;81.92;99429.75;5019200;28;129882;-78
2022/05/11 00:20:23;;;;;;;15.00;6.55;;;4.70;1.00;;;5.35;81.94;99433.50;5020468;28;129711;-82
2022/05/11 00:22:56;;;;;;;14.85;6.80;;;4.70;1.00;;;5.29;82.08;99445.38;5022253;28;126227;-80
2022/05/11 00:25:26;;;;;;;15.50;5.88;;;4.70;1.00;;;5.23;82.16;99443.78;5020434;28;124956;-78
2022/05/11 00:27:55;;;;;;;14.43;6.97;;;4.70;1.00;;;5.21;82.38;99437.91;5017488;28;128831;-77
2022/05/11 00:30:26;;;;;;;13.88;6.60;;;4.60;1.00;;;5.22;82.31;99440.31;5016399;28;129947;-78
2022/05/11 00:32:56;;;;;;;15.25;6.43;;;4.50;1.00;;;5.20;82.61;99436.28;5013543;28;126095;-77
2022/05/11 00:35:29;;;;;;;14.38;7.85;;;4.50;1.00;;;5.21;82.46;99432.50;5014970;28;125663;-76
2022/05/11 00:37:58;;;;;;;15.43;7.05;;;4.50;1.00;;;5.16;82.06;99432.56;5014778;28;130666;-77
2022/05/11 00:40:27;;;;;;;14.73;7.43;;;4.50;1.00;;;5.14;82.74;99432.81;5019110;28;129778;-77
2022/05/11 00:42:56;;;;;;;14.27;6.68;;;4.50;1.00;;;5.17;82.79;99429.59;5022994;28;126895;-77
2022/05/11 00:45:25;;;;;;;12.73;7.15;;;4.50;1.00;;;5.18;82.31;99433.88;5024166;28;124940;-76
2022/05/11 00:48:00;;;;;;;15.60;6.22;;;4.40;1.00;;;5.19;82.22;99430.09;5022382;28;130282;-75
2022/05/11 00:50:35;;;;;;;15.30;7.28;;;4.40;1.00;;;5.21;82.11;99432.50;5032091;27;130799;-77
2022/05/11 00:53:11;;;;;;;11.32;6.25;;;4.40;1.00;;;5.20;82.06;99434.41;5064045;27;126845;-76
2022/05/11 00:55:49;;;;;;;13.75;6.00;;;4.40;1.00;;;5.20;81.83;99436.28;5067329;27;126294;-78
2022/05/11 00:58:22;;;;;;;15.38;7.18;;;4.40;1.00;;;5.10;82.83;99436.34;5065549;27;129469;-77
2022/05/11 01:00:50;;;;;;;15.38;7.45;;;4.30;1.00;;;4.95;84.27;99440.69;5067276;27;130065;-76
2022/05/11 01:03:23;;;;;;;16.95;8.05;;;4.30;1.00;;;4.91;85.33;99436.97;5029899;27;124911;-78
2022/05/11 01:05:53;;;;;;;18.38;7.72;;;4.30;1.00;;;4.93;85.84;99428.63;5062763;27;125846;-78
2022/05/11 01:08:24;;;;;;;19.85;8.10;;;4.30;1.00;;;4.94;85.30;99432.91;5068037;27;131216;-78
2022/05/11 01:10:53;;;;;;;16.67;7.15;;;4.30;1.00;;;4.92;85.56;99430.47;5044537;27;129922;-80
2022/05/11 01:13:22;;;;;;;18.35;7.60;;;4.30;1.00;;;4.91;85.18;99428.91;5058542;27;125760;-79
2022/05/11 01:15:53;;;;;;;15.68;8.05;;;4.20;1.00;;;4.94;84.72;99433.72;5041332;27;126074;-78
2022/05/11 01:18:24;;;;;;;15.02;6.97;;;4.10;1.00;;;4.94;84.83;99431.03;5047659;27;128699;-78
2022/05/11 01:20:54;;;;;;;15.10;6.82;;;4.10;1.00;;;4.95;84.62;99423.75;5060628;27;129443;-78
2022/05/11 01:23:33;;;;;;;16.90;7.38;;;4.10;1.00;;;4.93;85.41;99432.09;5058735;27;126442;-78
2022/05/11 01:26:04;;;;;;;13.10;7.45;;;4.10;1.00;;;4.92;85.64;99429.69;5059020;27;125825;-79
2022/05/11 01:28:34;;;;;;;15.50;7.70;;;4.10;1.00;;;4.90;85.16;99437.25;5059378;27;130124;-76
2022/05/11 01:31:05;;;;;;;16.67;7.70;;;4.10;1.00;;;4.89;84.95;99431.03;5045561;27;128864;-74
2022/05/11 01:33:37;;;;;;;15.27;7.15;;;4.00;1.00;;;4.86;85.11;99442.34;5044370;27;124558;-78
2022/05/11 01:36:20;;;;;;;18.45;8.90;;;4.00;1.00;;;4.81;85.95;99437.00;5042395;27;125920;-78
2022/05/11 01:38:51;;;;;;;13.55;7.70;;;4.10;1.00;;;4.81;85.82;99439.69;5059621;27;130328;-78
2022/05/11 01:41:27;;;;;;;14.93;7.25;;;4.10;1.00;;;4.69;85.67;99426.56;5044207;27;128603;-79
2022/05/11 01:43:56;;;;;;;19.67;8.25;;;4.00;1.00;;;4.68;85.86;99424.94;5044332;27;125676;-77
2022/05/11 01:46:24;;;;;;;14.82;7.70;;;3.90;1.00;;;4.67;86.17;99417.94;5045078;27;125046;-78
2022/05/11 01:48:55;;;;;;;14.27;7.72;;;3.90;1.00;;;4.60;87.26;99412.88;5060543;27;130234;-79
2022/05/11 01:51:25;;;;;;;14.07;7.32;;;3.90;1.00;;;4.54;88.36;99418.53;5048631;27;129279;-79
2022/05/11 01:53:54;;;;;;;19.10;7.75;;;4.00;1.00;;;4.52;88.10;99408.06;5051561;27;125215;-79
2022/05/11 01:56:26;;;;;;;13.60;7.43;;;3.90;1.00;;;4.50;88.41;99407.50;5056781;27;125065;-76
2022/05/11 01:58:55;;;;;;;15.85;6.88;;;3.90;1.00;;;4.49;88.61;99411.28;5050549;27;129080;-77
2022/05/11 02:01:27;;;;;;;14.60;7.57;;;3.90;1.00;;;4.43;88.57;99404.31;5053590;27;129671;-76
2022/05/11 02:03:56;;;;;;;21.30;7.85;;;3.90;1.00;;;4.39;89.12;99405.94;5055920;27;125395;-77
2022/05/11 02:09:12;;;;;;;17.20;7.43;;;3.80;1.00;;;4.37;90.45;99397.34;5051362;27;130122;-78
2022/05/11 02:11:42;;;;;;;18.73;8.63;;;3.80;1.00;;;4.32;91.18;99395.47;5051443;27;129033;-77
2022/05/11 02:14:11;;;;;;;19.58;8.52;;;3.80;1.00;;;4.29;91.20;99399.50;5050076;27;125004;-77
2022/05/11 02:16:41;;;;;;;14.63;7.18;;;3.80;1.00;;;4.23;91.52;99408.66;5059932;27;126340;-77
2022/05/11 02:19:11;;;;;;;15.85;7.20;;;3.70;1.00;;;4.24;91.94;99412.97;5053285;27;131054;-78
2022/05/11 02:21:40;;;;;;;18.20;9.00;;;3.70;1.00;;;4.28;91.97;99400.56;5057333;27;129971;-75
2022/05/11 02:24:09;;;;;;;18.83;8.98;;;3.70;1.00;;;4.31;91.71;99402.72;5055913;27;124843;-78
2022/05/11 02:26:39;;;;;;;15.77;8.27;;;3.80;1.00;;;4.39;91.04;99409.41;5036187;27;126247;-79
2022/05/11 02:29:13;;;;;;;19.35;8.63;;;3.80;1.00;;;4.44;90.91;99414.81;5045114;27;130169;-79
2022/05/11 02:31:42;;;;;;;15.45;8.25;;;3.80;1.00;;;4.49;90.27;99409.41;5044006;27;129589;-80
2022/05/11 02:35:12;;;;;;;16.40;8.35;;;3.90;1.00;;;4.60;89.86;99418.25;5039371;27;125490;-76
2022/05/11 02:37:01;;;;;;;17.38;8.55;;;3.90;1.00;;;4.70;89.54;99411.22;5039197;27;126223;-78
2022/05/11 02:39:29;;;;;;;13.30;8.18;;;3.90;1.00;;;4.78;89.28;99413.34;5036829;27;129987;-79
2022/05/11 02:41:58;;;;;;;22.00;9.05;;;4.00;1.00;;;4.84;88.62;99409.56;5040017;27;129408;-77
2022/05/11 02:44:28;;;;;;;17.73;8.30;;;4.00;1.00;;;4.91;88.48;99406.56;5046178;27;125837;-78
2022/05/11 02:46:57;;;;;;;16.35;8.02;;;4.00;1.00;;;4.95;87.96;99403.03;5039524;27;125613;-76
2022/05/11 02:49:25;;;;;;;18.27;8.63;;;4.10;1.00;;;5.00;87.88;99405.72;5044965;27;130354;-78
2022/05/11 02:51:54;;;;;;;19.77;9.57;;;4.10;1.00;;;5.02;87.75;99392.78;5049839;27;128324;-76
2022/05/11 02:54:23;;;;;;;19.52;8.43;;;4.10;1.00;;;5.04;87.54;99390.63;5036655;27;125699;-76
2022/05/11 02:56:51;;;;;;;17.88;8.43;;;4.20;1.00;;;5.14;87.19;99392.47;5053798;27;124615;-74
2022/05/11 02:59:20;;;;;;;15.50;8.73;;;4.30;1.00;;;5.27;86.70;99382.97;5045656;27;129624;-76
2022/05/11 03:01:51;;;;;;;17.05;8.50;;;4.40;1.00;;;5.50;86.30;99380.66;5049060;27;130053;-76
2022/05/11 03:04:20;;;;;;;15.75;7.93;;;4.60;1.00;;;6.00;86.02;99372.47;5053318;27;124546;-76
2022/05/11 03:06:49;;;;;;;14.57;8.32;;;4.90;1.00;;;6.88;84.07;99381.19;5054857;27;126184;-77
2022/05/11 03:09:19;;;;;;;11.90;7.22;;;5.60;1.00;;;7.54;79.57;99360.56;5055391;27;129944;-77
2022/05/11 03:11:47;;;;;;;16.75;7.50;;;5.90;1.00;;;8.12;76.36;99355.78;5048029;27;130111;-75
2022/05/11 03:14:16;;;;;;;13.85;8.55;;;6.20;1.00;;;8.58;73.55;99352.22;5037132;27;126056;-77
2022/05/11 03:16:45;;;;;;;13.88;8.73;;;6.50;1.00;;;8.55;72.26;99350.13;5039827;27;125893;-80
2022/05/11 03:19:15;;;;;;;17.20;7.60;;;6.60;1.00;;;8.45;71.87;99350.34;5021767;27;128598;-79
2022/05/11 03:21:43;;;;;;;18.90;11.35;;;6.30;1.00;;;8.39;71.91;99357.69;5047379;27;128893;-78
2022/05/11 03:24:12;;;;;;;15.50;8.00;;;6.20;1.00;;;8.33;72.20;99360.81;5039366;27;126659;-78
2022/05/11 03:26:41;;;;;;;13.02;8.18;;;6.10;1.00;;;8.26;72.47;99353.09;5045889;27;126626;-77
2022/05/11 03:29:09;;;;;;;15.32;7.93;;;6.10;1.00;;;8.16;73.17;99353.28;5049336;27;132468;-77
2022/05/11 03:31:38;;;;;;;19.17;8.55;;;6.10;1.00;;;8.04;74.08;99351.06;5050134;27;130023;-77
2022/05/11 03:36:57;;;;;;;14.73;8.60;;;6.20;1.00;;;8.09;74.83;99348.28;5038961;27;125655;-75
2022/05/11 03:39:27;;;;;;;16.27;8.35;;;6.40;1.00;;;8.05;75.34;99341.84;5044830;27;129926;-76
2022/05/11 03:41:56;;;;;;;17.60;8.23;;;6.50;1.00;;;8.05;75.83;99349.97;5048366;27;129104;-79
2022/05/11 03:44:24;;;;;;;19.30;10.82;;;6.60;1.00;;;8.16;75.93;99347.88;5050704;27;125219;-77
2022/05/11 03:46:52;;;;;;;16.02;8.85;;;6.70;1.00;;;8.25;75.91;99346.88;5046346;27;124596;-76
2022/05/11 03:49:21;;;;;;;16.38;9.27;;;6.90;1.00;;;8.42;75.44;99345.50;5045301;27;129725;-79
2022/05/11 03:51:52;;;;;;;16.65;9.05;;;7.00;1.00;;;8.61;75.00;99337.28;5063519;27;129573;-78
2022/05/11 03:54:21;;;;;;;22.80;9.68;;;7.20;1.00;;;8.79;74.33;99330.16;5047823;27;125170;-81
2022/05/11 03:56:50;;;;;;;21.38;8.48;;;7.40;1.00;;;8.94;73.82;99335.25;5066001;27;126001;-79
2022/05/11 03:59:19;;;;;;;19.65;9.25;;;7.60;1.00;;;9.04;73.44;99334.22;5043607;27;129332;-79
2022/05/11 04:01:47;;;;;;;17.55;8.90;;;7.70;1.00;;;9.22;73.15;99343.28;5025408;27;128604;-80
2022/05/11 04:04:15;;;;;;;18.73;8.68;;;7.90;1.00;;;9.40;72.15;99335.31;5042655;27;125671;-78
2022/05/11 04:06:45;;;;;;;15.88;8.57;;;8.10;1.00;;;9.63;71.05;99334.19;5022764;27;124740;-79
2022/05/11 04:09:14;;;;;;;17.58;8.38;;;8.30;1.00;;;9.91;69.45;99339.47;5037505;27;129771;-80
2022/05/11 04:11:47;;;;;;;19.77;8.73;;;8.50;1.00;;;10.24;68.35;99333.72;5036422;27;129534;-79
2022/05/11 04:14:16;;;;;;;14.90;8.45;;;8.80;1.00;;;10.59;67.49;99333.84;5019333;27;126062;-79
2022/05/11 04:16:44;;;;;;;23.52;8.40;;;9.10;1.00;;;11.00;67.13;99332.66;5035360;27;126531;-81
2022/05/11 04:19:13;;;;;;;13.48;8.38;;;9.50;1.00;;;11.38;65.33;99329.28;5022936;27;129119;-80
2022/05/11 04:21:42;;;;;;;11.90;7.70;;;9.80;1.00;;;11.73;64.18;99339.31;5022332;27;129279;-81
2022/05/11 04:24:16;;;;;;;17.40;7.82;;;10.10;1.00;;;12.08;62.55;99337.34;5019047;27;125464;-79
2022/05/11 04:26:46;;;;;;;16.70;7.13;;;10.40;1.00;;;12.47;61.41;99346.28;5019382;27;125276;-78
2022/05/11 04:29:15;;;;;;;12.98;6.95;;;10.70;1.00;;;12.84;59.22;99349.31;5034724;27;130062;-77
2022/05/11 04:31:44;;;;;;;19.73;8.65;;;10.80;1.00;;;13.20;58.42;99345.19;5023655;27;129566;-76
2022/05/11 04:34:12;;;;;;;23.98;10.50;;;11.10;1.00;;;13.56;57.84;99345.75;5035011;27;126146;-78
2022/05/11 04:36:41;;;;;;;16.45;8.52;;;11.50;1.00;;;13.87;56.56;99339.81;5015417;27;125431;-80
2022/05/11 04:39:09;;;;;;;19.83;7.65;;;11.80;1.00;;;14.16;54.31;99336.13;5033830;27;130516;-79
2022/05/11 04:41:38;;;;;;;21.15;7.78;;;11.90;1.00;;;14.36;53.71;99339.88;5035504;27;130374;-79
2022/05/11 04:44:08;;;;;;;21.00;8.68;;;12.20;1.00;;;14.42;51.88;99336.94;5035242;27;125732;-79
2022/05/11 04:46:38;;;;;;;25.02;8.15;;;12.10;1.00;;;14.44;52.20;99332.69;5035409;27;125482;-77
2022/05/11 04:49:21;;;;;;;23.48;7.47;;;12.10;1.00;;;14.56;50.11;99335.44;5003087;27;130029;-79
2022/05/11 04:51:53;;;;;;;23.63;7.40;;;12.20;1.00;;;14.79;49.51;99334.19;5015484;28;129211;-79
2022/05/11 04:54:22;;;;;;;19.13;6.40;;;12.50;1.00;;;14.94;48.08;99319.81;5014405;28;125974;-80
2022/05/11 04:56:50;;;;;;;21.13;6.50;;;12.60;1.00;;;15.06;47.17;99325.25;5016609;28;125992;-78
2022/05/11 04:59:22;;;;;;;11.93;4.88;;;12.80;1.00;;;15.28;45.26;99328.59;4996704;28;130161;-76
2022/05/11 05:01:51;;;;;;;19.30;5.93;;;12.90;1.00;;;15.35;45.38;99317.88;5015581;28;129314;-75
2022/05/11 05:04:21;;;;;;;13.48;5.18;;;13.00;1.00;;;15.41;44.30;99316.50;5013321;28;126712;-79
2022/05/11 05:06:49;;;;;;;10.73;4.68;;;13.00;1.00;;;15.53;43.13;99323.06;5014006;28;126252;-78
2022/05/11 05:09:18;;;;;;;12.00;4.75;;;13.20;1.00;;;15.62;43.47;99318.22;5013021;28;129927;-76
2022/05/11 05:11:46;;;;;;;9.05;4.63;;;13.30;1.00;;;15.92;42.83;99320.59;5013671;28;129815;-77
2022/05/11 05:14:15;;;;;;;12.05;4.30;;;13.50;1.00;;;15.99;42.05;99318.03;5015799;28;125235;-76
2022/05/11 05:16:45;;;;;;;15.40;4.57;;;13.60;1.00;;;16.06;40.53;99307.25;5013907;28;125369;-76
2022/05/11 05:19:14;;;;;;;22.20;4.70;;;13.50;99.90;;;15.98;40.82;99317.22;5014210;28;130028;-76
2022/05/11 05:21:42;;;;;;;14.15;4.20;;;13.60;99.90;;;16.01;40.85;99310.28;5012824;28;129313;-79
2022/05/11 05:24:11;;;;;;;13.93;3.72;;;13.70;99.90;;;16.04;39.22;99304.09;5014478;27;126255;-74
2022/05/11 05:26:39;;;;;;;14.55;3.60;;;13.80;99.90;;;16.03;38.38;99297.03;5017462;28;125611;-75
2022/05/11 05:31:55;;;;;;;4.80;2.20;;;13.90;99.90;;;16.11;37.37;99300.72;5018917;28;129501;-77
2022/05/11 05:34:23;;;;;;;9.23;2.58;;;14.10;99.90;;;16.22;36.99;99304.53;5019231;28;125360;-74
2022/05/11 05:36:52;;;;;;;15.02;3.03;;;14.20;99.90;;;16.49;37.37;99302.81;5017064;28;125856;-75
2022/05/11 05:39:20;;;;;;;10.75;2.90;;;14.30;99.90;;;16.58;36.61;99299.09;5017174;28;130510;-77
2022/05/11 05:41:49;;;;;;;11.60;2.95;;;14.30;99.90;;;16.68;37.18;99293.06;5016709;28;129485;-77
2022/05/11 05:44:18;;;;;;;17.00;3.22;;;14.50;99.90;;;16.88;36.87;99289.22;5018589;28;126287;-77
2022/05/11 05:46:47;;;;;;;11.40;3.28;;;14.70;99.90;;;17.01;37.45;99289.09;5018577;28;125851;-75
2022/05/11 05:49:17;;;;;;;7.85;2.47;;;14.80;99.90;;;17.05;36.04;99292.72;5017892;28;129971;-75
2022/05/11 05:51:45;;;;;;;9.18;2.58;;;14.80;99.90;;;16.94;37.06;99299.91;5034962;27;129937;-76
2022/05/11 05:54:14;;;;;;;10.02;2.80;;;14.60;99.90;;;17.06;36.86;99294.28;5038073;27;126792;-77
2022/05/11 05:56:42;;;;;;;14.10;3.47;;;14.90;99.90;;;17.20;37.80;99293.78;5039796;27;127141;-76
2022/05/11 05:59:11;;;;;;;10.80;2.85;;;15.00;99.90;;;17.09;37.60;99284.56;5023633;27;130223;-76
2022/05/11 06:01:40;;;;;;;8.88;2.78;;;15.00;99.90;;;17.01;37.66;99297.31;5037342;27;129872;-77
2022/05/11 06:04:08;;;;;;;10.88;2.67;;;14.90;99.90;;;16.96;37.61;99297.63;5019108;27;126812;-75
2022/05/11 06:06:39;;;;;;;8.38;2.70;;;14.90;99.90;;;16.84;36.34;99290.28;5037023;27;126442;-77
2022/05/11 06:09:09;;;;;;;20.40;3.58;;;14.70;99.90;;;17.04;36.11;99294.66;5036757;27;130087;-76
2022/05/11 06:11:38;;;;;;;12.57;3.17;;;14.70;99.90;;;17.27;35.51;99287.69;5036727;27;130235;-74
2022/05/11 06:14:07;;;;;;;9.07;3.17;;;14.70;99.90;;;17.35;35.60;99286.66;5036527;27;126205;-78
2022/05/11 06:16:36;;;;;;;13.68;3.40;;;15.00;99.90;;;17.41;35.83;99283.25;5036419;27;125916;-75
2022/05/11 06:19:05;;;;;;;8.18;2.50;;;15.10;99.90;;;17.47;35.34;99278.28;5037632;27;130619;-75
2022/05/11 06:21:34;;;;;;;14.40;3.22;;;15.20;99.90;;;17.39;35.27;99276.53;5036902;27;129973;-76
2022/05/11 06:24:05;;;;;;;7.82;2.42;;;15.20;99.90;;;17.58;34.75;99272.97;5019155;27;125979;-76
2022/05/11 06:26:33;;;;;;;9.30;2.22;;;15.40;99.90;;;17.89;34.45;99272.00;5037393;27;126330;-78
2022/05/11 06:29:04;;;;;;;6.82;1.92;;;15.50;99.90;;;18.02;34.21;99275.34;5036816;27;130093;-77
2022/05/11 06:31:33;;;;;;;14.25;4.07;;;15.90;99.90;;;18.05;33.75;99268.31;5036407;27;129571;-76
2022/05/11 06:34:02;;;;;;;7.70;2.47;;;15.80;99.90;;;17.86;34.74;99264.47;5036767;27;125517;-75
2022/05/11 06:36:31;;;;;;;13.55;2.88;;;15.60;99.90;;;17.40;34.98;99265.19;5036985;27;126498;-76
2022/05/11 06:38:59;;;;;;;10.18;2.47;;;15.40;99.90;;;17.14;34.95;99267.81;5036232;27;130491;-76
2022/05/11 06:41:30;;;;;;;13.25;3.10;;;15.10;99.90;;;17.44;34.84;99268.03;5037328;27;129791;-75
2022/05/11 06:43:58;;;;;;;13.68;3.33;;;15.30;99.90;;;17.63;34.27;99258.16;5021648;27;125622;-80
2022/05/11 06:46:27;;;;;;;13.38;3.08;;;15.50;99.90;;;17.98;34.04;99273.69;5021412;27;125066;-78
2022/05/11 06:48:55;;;;;;;14.20;2.90;;;15.80;99.90;;;18.07;33.45;99261.28;5036816;27;130053;-77
2022/05/11 06:51:24;;;;;;;11.00;2.28;;;15.80;99.90;;;18.39;33.18;99261.00;5017352;28;128551;-77
2022/05/11 06:59:33;;;;;;;11.88;2.58;;;16.20;99.90;;;18.37;32.31;99262.53;5013838;28;131536;-77
2022/05/11 07:02:06;;;;;;;10.45;2.60;;;15.70;99.90;;;18.23;33.11;99257.59;5016055;28;129829;-75
2022/05/11 07:04:37;;;;;;;8.70;2.45;;;15.90;99.90;;;18.27;32.63;99253.75;5000497;28;125755;-76
2022/05/11 07:07:07;;;;;;;10.25;2.55;;;15.80;99.90;;;18.26;33.43;99246.69;4995608;28;125872;-76
2022/05/11 07:09:37;;;;;;;11.00;2.92;;;16.10;99.90;;;18.54;34.07;99244.72;4996319;28;130002;-76
2022/05/11 07:12:22;;;;;;;17.88;3.20;;;16.50;99.90;;;18.66;32.46;99245.28;4997454;28;129453;-76
2022/05/11 07:14:54;;;;;;;15.40;3.25;;;16.50;99.90;;;18.81;32.72;99248.25;4995329;28;127002;-74
2022/05/11 07:17:30;;;;;;;10.85;2.92;;;16.40;99.90;;;18.88;33.16;99237.34;4995493;28;126062;-74
2022/05/11 07:20:00;;;;;;;14.40;2.75;;;16.70;99.90;;;18.96;33.53;99239.00;5008916;28;130271;-75
2022/05/11 07:22:28;;;;;;;15.57;3.25;;;16.80;99.90;;;19.00;32.68;99237.09;5016893;28;128256;-76
2022/05/11 07:24:57;;;;;;;10.75;2.63;;;16.70;99.90;;;19.06;33.04;99225.75;5014990;28;125452;-74
2022/05/11 07:27:27;;;;;;;8.73;2.53;;;16.80;99.90;;;19.25;33.01;99230.31;5015904;28;125988;-76
2022/05/11 07:29:57;;;;;;;7.13;2.33;;;17.10;99.90;;;19.43;33.14;99222.22;5004452;28;130004;-75
2022/05/11 07:32:27;;;;;;;11.43;3.08;;;17.40;99.90;;;19.23;32.47;99219.69;4996146;28;129894;-74
2022/05/11 07:34:55;;;;;;;8.52;2.50;;;17.20;99.90;;;19.26;33.38;99213.44;5002616;28;127915;-78
2022/05/11 07:37:24;;;;;;;10.32;2.80;;;17.20;99.90;;;19.28;32.70;99207.56;5003612;28;126707;-74
2022/05/11 07:39:52;;;;;;;8.77;2.38;;;17.20;99.90;;;18.99;32.41;99210.75;5000943;28;130330;-73
2022/05/11 07:42:21;;;;;;;11.32;2.50;;;16.70;99.90;;;19.19;32.70;99202.34;5009890;28;129634;-75
2022/05/11 07:44:51;;;;;;;3.88;2.00;;;16.60;99.90;;;19.40;32.57;99199.81;5017760;28;124584;-74
2022/05/11 07:47:20;;;;;;;7.85;2.72;;;17.10;99.90;;;19.36;31.99;99196.22;5015468;27;125885;-74
2022/05/11 07:49:49;;;;;;;8.57;2.28;;;16.90;99.90;;;19.55;31.48;99191.69;5015796;28;130094;-74
2022/05/11 07:52:17;;;;;;;9.30;2.40;;;16.90;99.90;;;19.49;31.47;99190.44;5038627;27;129848;-76
2022/05/11 07:54:46;;;;;;;8.60;2.50;;;16.90;99.90;;;19.37;31.58;99186.81;5035006;27;126402;-75
2022/05/11 08:00:03;;;;;;;10.37;3.13;;;17.00;99.90;;;19.96;32.14;99175.16;4999103;28;129704;-74
2022/05/11 08:02:34;;;;;;;11.10;2.90;;;17.70;99.90;;;20.27;31.23;99175.72;5015039;27;130058;-72
2022/05/11 08:05:08;;;;;;;9.35;2.50;;;18.00;99.90;;;20.27;31.09;99159.19;5015111;28;125761;-74
2022/05/11 08:07:40;;;;;;;7.75;1.77;;;18.00;99.90;;;20.37;30.97;99158.47;5000037;28;126503;-75
2022/05/11 08:10:11;;;;;;;6.30;2.10;;;18.10;99.90;;;20.09;29.75;99179.16;5016352;27;130231;-79
2022/05/11 08:12:40;;;;;;;6.80;2.15;;;17.50;99.90;;;20.07;30.73;99165.00;4999865;28;128201;-76
2022/05/11 08:15:12;;;;;;;5.43;2.20;;;17.90;99.90;;;19.98;31.11;99169.25;5019499;27;125874;-73
2022/05/11 08:17:43;;;;;;;6.32;2.60;;;17.90;99.90;;;20.06;30.60;99165.38;5020414;27;126019;-77
2022/05/11 08:20:17;;;;;;;8.05;3.03;;;17.90;99.90;;;19.73;30.95;99169.84;5019784;27;129358;-75
2022/05/11 08:22:46;;;;;;;8.30;2.67;;;17.50;99.90;;;19.92;31.40;99161.34;5036247;27;129608;-76
2022/05/11 08:25:19;;;;;;;14.70;3.58;;;17.90;99.90;;;20.18;30.69;99161.50;5034482;27;126923;-78
2022/05/11 08:27:49;;;;;;;10.57;2.97;;;17.50;99.90;;;20.32;30.61;99155.28;5035300;27;126228;-76
2022/05/11 08:33:22;;;;;;;6.88;2.47;;;17.90;99.90;;;20.22;30.66;99143.03;5034783;27;130948;-77
2022/05/11 08:35:53;;;;;;;7.38;2.65;;;17.40;99.90;;;20.42;30.84;99149.81;5034502;27;127093;-75
2022/05/11 08:38:25;;;;;;;6.43;2.80;;;17.90;99.90;;;20.35;30.42;99144.28;5016656;27;125506;-75
2022/05/11 08:40:59;;;;;;;11.90;3.63;;;18.20;99.90;;;20.42;30.34;99138.81;5019347;27;129849;-76
2022/05/11 08:43:31;;;;;;;6.40;2.85;;;17.90;99.90;;;20.51;31.07;99129.41;5035132;27;130007;-76
2022/05/11 08:46:14;;;;;;;12.68;3.25;;;18.30;99.90;;;20.76;30.55;99135.81;5019695;27;125184;-78
2022/05/11 08:48:56;;;;;;;27.17;4.13;;;18.60;99.90;;;20.78;29.79;99132.66;5034959;27;126531;-77
2022/05/11 08:51:33;;;;;;;19.17;3.40;;;18.40;99.90;;;20.99;30.00;99129.19;5035955;27;130248;-80
2022/05/11 08:54:14;;;;;;;12.30;3.78;;;18.60;99.90;;;21.08;29.28;99140.59;5035600;27;130556;-78
2022/05/11 08:56:45;;;;;;;16.13;3.90;;;18.50;99.90;;;21.03;28.80;99141.00;5035201;27;126731;-79
2022/05/11 08:59:21;;;;;;;26.17;4.25;;;18.60;99.90;;;21.04;29.17;99128.78;5035998;27;125952;-79
2022/05/11 09:02:07;;;;;;;29.73;5.32;;;18.40;99.90;;;20.83;29.15;99135.84;5024006;27;129290;-77
2022/05/11 09:04:45;;;;;;;14.13;4.00;;;17.80;99.90;;;20.63;29.41;99127.09;5038840;27;129728;-76
2022/05/11 09:07:14;;;;;;;20.23;4.05;;;17.80;99.90;;;20.65;29.70;99133.03;5023509;27;125223;-77
2022/05/11 09:09:43;;;;;;;11.25;3.45;;;18.10;99.90;;;20.73;29.35;99125.56;5019819;27;125399;-78
2022/05/11 09:12:13;;;;;;;17.17;4.35;;;18.10;99.90;;;20.88;30.42;99120.09;5038485;27;130368;-76
2022/05/11 09:14:49;;;;;;;11.13;3.53;;;18.30;99.90;;;20.98;28.79;99120.09;5023071;27;129100;-77
2022/05/11 09:17:26;;;;;;;13.45;3.80;;;18.60;99.90;;;20.88;28.33;99120.88;5037660;27;127091;-80
2022/05/11 09:20:07;;;;;;;7.65;2.88;;;18.40;99.90;;;20.76;28.23;99113.75;5038276;27;127091;-78
2022/05/11 09:22:39;;;;;;;6.70;2.97;;;18.30;99.90;;;21.00;28.36;99105.94;5041016;27;130979;-77
2022/05/11 09:25:21;;;;;;;10.60;2.80;;;18.70;99.90;;;21.34;28.88;99113.84;5038012;27;129971;-82
2022/05/11 09:27:50;;;;;;;18.42;3.25;;;19.00;99.90;;;21.33;27.40;99104.78;5020328;27;125267;-79
2022/05/11 09:30:24;;;;;;;8.63;2.47;;;19.00;99.90;;;21.48;27.48;99100.03;5019524;27;125868;-76
2022/05/11 09:33:15;;;;;;;12.68;3.00;;;19.20;99.90;;;21.24;27.86;99098.06;5023820;27;129899;-82
2022/05/11 09:35:44;;;;;;;10.65;3.42;;;19.20;99.90;;;21.35;27.00;99107.16;5038571;27;130922;-79
2022/05/11 09:38:40;;;;;;;8.50;3.00;;;19.20;99.90;;;21.51;27.69;99099.28;5038379;27;125805;-78
2022/05/11 09:41:24;;;;;;;5.68;2.65;;;19.50;99.90;;;21.78;27.38;99098.06;5023652;27;125663;-79
2022/05/11 09:43:56;;;;;;;11.20;2.80;;;19.80;99.90;;;21.86;26.65;99089.41;5021879;27;129760;-79
2022/05/11 09:46:32;;;;;;;9.60;2.72;;;19.30;99.90;;;21.99;26.94;99088.97;5037583;27;129682;-80
2022/05/11 09:49:05;;;;;;;8.07;2.90;;;19.70;99.90;;;22.17;26.58;99073.09;5023698;27;124758;-83
2022/05/11 09:51:51;;;;;;;7.47;2.65;;;20.00;99.90;;;22.45;27.54;99076.97;5018837;28;125246;-77
2022/05/11 09:54:32;;;;;;;5.77;2.73;;;20.30;99.90;;;22.87;26.42;99069.63;5017934;28;130353;-77
2022/05/11 09:57:05;;;;;;;6.53;2.90;;;20.70;99.90;;;23.04;24.94;99069.91;4998897;28;129956;-73
2022/05/11 09:59:37;;;;;;;6.47;2.60;;;19.70;99.90;;;23.19;26.09;99074.19;5017263;28;125951;-75
2022/05/11 10:02:30;;;;;;;5.55;2.67;;;20.30;99.90;;;23.08;25.55;99065.16;5018193;28;125141;-73
2022/05/11 10:05:06;;;;;;;6.22;2.25;;;20.50;99.90;;;23.01;24.86;99051.34;5021091;28;130089;-76
2022/05/11 10:07:37;;;;;;;;;;;19.80;99.90;;;22.68;25.78;99056.31;5002500;28;128271;-80
2022/05/11 10:10:13;;;;;;;10.75;2.97;;;20.00;99.90;;;22.94;25.20;99050.22;5016393;28;126313;-78
2022/05/11 10:12:44;;;;;;;9.40;2.70;;;19.40;99.90;;;23.04;25.12;99061.63;4998627;28;126411;-77
2022/05/11 10:24:16;;;;;;;7.82;2.63;;;20.60;99.90;;;23.21;26.07;99041.34;5017476;28;125938;-75
2022/05/11 10:26:54;;;;;;;5.60;2.63;;;20.90;99.90;;;23.42;25.84;99034.03;5016511;28;130231;-76
2022/05/11 10:29:38;;;;;;;7.53;2.90;;;21.00;99.90;;;23.75;24.92;99037.25;5017114;28;129653;-77
2022/05/11 10:32:15;;;;;;;6.97;2.25;;;21.10;99.90;;;23.82;24.18;99017.81;5016583;28;125693;-75
2022/05/11 10:34:58;;;;;;;21.38;3.58;;;21.10;99.90;;;23.04;24.46;99026.41;5017250;28;125819;-80
2022/05/11 10:37:36;;;;;;;10.70;3.08;;;20.30;99.90;;;23.02;25.07;99025.28;5016873;28;129071;-75
2022/05/11 10:40:19;;;;;;;8.45;2.65;;;20.50;99.90;;;22.77;25.53;99017.94;5001456;28;128656;-78
2022/05/11 10:43:04;;;;;;;12.73;2.90;;;20.10;99.90;;;22.84;24.94;99001.28;5016211;28;126708;-75
2022/05/11 10:45:43;;;;;;;8.00;2.20;;;20.20;99.90;;;23.17;26.27;99004.63;5017348;28;126373;-76
2022/05/11 10:48:29;;;;;;;7.25;2.70;;;20.80;99.90;;;23.19;25.57;99002.22;5013788;28;130485;-76
2022/05/11 10:51:03;;;;;;;12.35;2.60;;;21.10;99.90;;;23.49;26.04;99007.06;5026415;27;130403;-75
2022/05/11 10:53:43;;;;;;;6.22;2.83;;;21.20;99.90;;;23.31;26.10;99001.72;5036316;27;126115;-75
2022/05/11 10:56:34;;;;;;;9.93;2.65;;;20.80;99.90;;;23.51;25.09;99001.13;5016911;27;125246;-75
2022/05/11 11:00:02;;;;;;;8.93;2.60;;;21.00;99.90;;;23.21;24.93;99008.13;5035928;27;130060;-74
2022/05/11 11:03:35;;;;;;;7.07;2.03;;;21.10;99.90;;;23.05;25.77;98991.25;4973664;28;129879;-80